Millington Regional Jetport Airport Millington US
ICAO: KNQA
IATA: NQA
Category: Medium
Scheduled Services: No

Elevation: 320 ft
TransAlt. 18000 ft.

Airport Communications:
MEMPHIS APP:119.1
AWOS 3:118.925
CTAF:120.25
MEMPHIS DEP:124.15
GND:121.375
TWR:120.25
UNICOM:122.95

KNQA Zoom In..

Runways:

(A) RW 04 length 8000 ft width 200 ft
---- / hdg 39

(B) RW 22 length 8000 ft width 200 ft
ILS 109.75 / hdg 219

Location; KNQA
Day. 20 / Time. 01.50 Zulu
* Altimeter: 29.86
* Temperature: 28° c. 82.4°f.
* Wind from: 130° Speed 05 kn.
Dewpoint: 23° c.
Visibility: 10 Statute Miles.
Clouds: Broken 4900 ft.
Clouds: Broken 25000 ft.

KNQA 200150Z 13005KT 10SM BKN049 BKN250 28/23 A2986


Wind From 130°
Speed 05 kn.

 
 
jpsmedia.com for Web Design worldairports.se 2018   terms of use